Time;durP1;ratioP1;P1;durP2;ratioP2;P2;SDS_P1;SDS_P2;PMS_P1;PMS_P2;Temp;Humidity;BMP_temperature;BMP_pressure;BME280_temperature;BME280_humidity;BME280_pressure;Samples;Min_cycle;Max_cycle;Signal;HPM_P1;HPM_P2
2023/05/31 04:00:54;;;;;;;3.05;2.28;;;10.40;99.90;;;;;;5719462;23;20290;-75
2023/05/31 04:03:21;;;;;;;1.30;1.17;;;10.50;99.90;;;;;;4986095;28;20254;-73
2023/05/31 04:05:48;;;;;;;2.10;1.85;;;10.50;99.90;;;;;;4990140;28;20295;-73
2023/05/31 04:08:15;;;;;;;1.27;1.15;;;10.50;99.90;;;;;;4988385;28;20213;-73
2023/05/31 04:10:41;;;;;;;2.50;1.45;;;10.60;99.90;;;;;;4986482;28;20251;-73
2023/05/31 04:13:08;;;;;;;3.22;1.98;;;10.70;99.90;;;;;;4973443;28;20231;-73
2023/05/31 04:15:36;;;;;;;4.88;2.70;;;10.80;99.90;;;;;;4972297;28;20204;-73
2023/05/31 04:18:04;;;;;;;3.03;2.30;;;10.80;99.90;;;;;;4972332;28;20209;-73
2023/05/31 04:20:31;;;;;;;1.88;1.77;;;10.90;99.90;;;;;;4976215;28;20251;-73
2023/05/31 04:22:58;;;;;;;3.42;2.40;;;11.20;99.90;;;;;;4971840;28;20288;-73
2023/05/31 04:25:24;;;;;;;3.80;3.37;;;12.00;99.90;;;;;;4976625;28;20218;-74
2023/05/31 04:27:51;;;;;;;3.50;3.17;;;13.00;99.90;;;;;;4975027;28;20480;-74
2023/05/31 04:30:18;;;;;;;2.20;2.00;;;13.90;99.90;;;;;;4972520;28;20488;-74
2023/05/31 04:32:45;;;;;;;1.57;1.47;;;14.70;99.90;;;;;;4971485;28;20546;-74
2023/05/31 04:35:13;;;;;;;1.73;1.73;;;15.30;99.90;;;;;;4972544;28;20476;-74
2023/05/31 04:37:40;;;;;;;1.97;1.87;;;16.00;99.90;;;;;;4969586;28;20480;-74
2023/05/31 04:40:09;;;;;;;1.40;1.40;;;16.60;99.90;;;;;;4969580;28;20741;-74
2023/05/31 04:42:36;;;;;;;1.50;1.40;;;17.20;99.90;;;;;;4972093;28;20566;-74
2023/05/31 04:45:04;;;;;;;3.03;1.87;;;17.60;99.90;;;;;;4972409;28;20922;-74
2023/05/31 04:47:31;;;;;;;2.40;1.50;;;17.70;99.90;;;;;;4970880;28;20473;-75
2023/05/31 04:49:59;;;;;;;2.33;1.70;;;18.10;99.90;;;;;;4970208;28;20476;-75
2023/05/31 04:52:29;;;;;;;1.90;1.90;;;18.40;99.90;;;;;;4973525;28;20548;-74
2023/05/31 04:54:56;;;;;;;3.07;2.20;;;18.80;99.90;;;;;;4976557;28;20473;-75
2023/05/31 04:57:23;;;;;;;1.90;1.80;;;19.30;99.90;;;;;;4977710;28;20483;-75
2023/05/31 04:59:50;;;;;;;1.60;1.50;;;19.60;99.90;;;;;;4975670;28;20470;-75
2023/05/31 05:02:18;;;;;;;2.40;2.30;;;19.80;99.90;;;;;;4975755;28;20511;-72
2023/05/31 05:04:45;;;;;;;2.30;2.10;;;20.20;99.90;;;;;;4973095;28;20468;-73
2023/05/31 05:07:12;;;;;;;2.60;1.33;;;20.20;99.90;;;;;;4975304;28;20468;-74
2023/05/31 05:09:40;;;;;;;1.33;1.33;;;20.20;99.90;;;;;;4978088;28;20485;-73
2023/05/31 05:12:08;;;;;;;1.43;1.43;;;20.50;99.90;;;;;;4975597;28;20501;-73
2023/05/31 05:14:35;;;;;;;5.40;1.80;;;20.90;99.90;;;;;;4973914;28;21129;-74
2023/05/31 05:17:01;;;;;;;1.80;1.70;;;20.90;99.90;;;;;;4974261;28;20468;-73
2023/05/31 05:19:28;;;;;;;1.37;1.37;;;21.10;99.90;;;;;;4978445;28;21012;-74
2023/05/31 05:21:55;;;;;;;2.07;1.70;;;20.90;99.90;;;;;;4975670;28;20479;-74
2023/05/31 05:24:22;;;;;;;1.70;1.60;;;21.10;99.90;;;;;;4972492;28;20487;-74
2023/05/31 05:26:50;;;;;;;1.30;1.30;;;21.60;99.90;;;;;;4974515;28;20506;-74
2023/05/31 05:29:16;;;;;;;2.60;2.40;;;21.40;99.90;;;;;;4982058;28;20478;-74
2023/05/31 05:31:43;;;;;;;1.80;1.77;;;21.40;99.90;;;;;;4973369;28;20603;-74
2023/05/31 05:34:10;;;;;;;1.60;1.60;;;21.10;99.90;;;;;;4971709;28;20470;-74
2023/05/31 05:36:37;;;;;;;1.80;1.70;;;21.00;99.90;;;;;;4977350;28;20550;-73
2023/05/31 05:39:06;;;;;;;1.80;1.80;;;21.20;99.90;;;;;;4970253;28;20495;-72
2023/05/31 05:41:32;;;;;;;2.07;1.97;;;21.10;99.90;;;;;;4972238;28;20843;-73
2023/05/31 05:44:02;;;;;;;2.83;1.93;;;21.10;99.90;;;;;;4980771;28;20981;-73
2023/05/31 05:46:28;;;;;;;2.30;1.53;;;20.80;99.90;;;;;;4973674;28;20467;-73
2023/05/31 05:48:56;;;;;;;2.17;2.07;;;20.00;99.90;;;;;;4970748;28;20474;-73
2023/05/31 05:51:23;;;;;;;2.17;2.07;;;19.50;99.90;;;;;;4978041;28;20595;-73
2023/05/31 05:53:50;;;;;;;3.30;1.90;;;19.50;99.90;;;;;;4968683;28;20471;-72
2023/05/31 05:56:18;;;;;;;3.03;2.30;;;20.00;99.90;;;;;;4973498;28;20836;-73
2023/05/31 05:58:46;;;;;;;2.00;2.00;;;20.40;99.90;;;;;;4974314;28;20498;-73
2023/05/31 06:01:18;;;;;;;2.30;2.20;;;19.90;99.90;;;;;;4974100;28;20546;-73
2023/05/31 06:03:46;;;;;;;1.57;1.57;;;20.20;99.90;;;;;;4972330;28;20457;-73
2023/05/31 06:06:13;;;;;;;1.27;1.27;;;20.70;99.90;;;;;;4982052;28;20472;-73
2023/05/31 06:08:40;;;;;;;1.60;1.60;;;21.20;99.90;;;;;;4975170;28;20472;-73
2023/05/31 06:11:07;;;;;;;1.93;1.70;;;21.50;99.90;;;;;;4976305;28;20578;-73
2023/05/31 06:13:33;;;;;;;1.50;1.40;;;22.10;99.90;;;;;;4973190;28;20495;-72
2023/05/31 06:16:00;;;;;;;1.47;1.37;;;22.10;99.90;;;;;;4972894;28;20472;-72
2023/05/31 06:18:28;;;;;;;1.10;1.10;;;21.90;99.90;;;;;;4973271;28;20475;-73
2023/05/31 06:20:55;;;;;;;1.43;1.43;;;22.40;99.90;;;;;;4982801;28;20492;-72
2023/05/31 06:23:21;;;;;;;1.47;1.43;;;21.80;99.90;;;;;;4973470;28;20944;-72
2023/05/31 06:25:48;;;;;;;1.33;1.23;;;22.00;99.90;;;;;;4973657;28;20468;-72
2023/05/31 06:28:15;;;;;;;2.53;2.33;;;22.80;99.90;;;;;;4977809;28;21014;-72
2023/05/31 06:30:42;;;;;;;1.37;1.37;;;23.30;99.90;;;;;;4964200;28;20515;-72
2023/05/31 06:33:09;;;;;;;1.27;1.27;;;23.70;99.90;;;;;;4967407;28;20547;-72
2023/05/31 06:35:37;;;;;;;1.23;1.23;;;23.40;99.90;;;;;;4976543;28;20608;-73
2023/05/31 06:38:03;;;;;;;1.70;1.60;;;23.90;99.80;;;;;;4973630;28;21002;-73
2023/05/31 06:40:30;;;;;;;0.80;0.80;;;24.00;99.90;;;;;;4968966;28;20471;-73
2023/05/31 06:42:57;;;;;;;1.10;1.10;;;24.00;98.70;;;;;;4971105;28;20468;-73
2023/05/31 06:45:25;;;;;;;0.70;0.70;;;23.90;97.80;;;;;;4973226;28;20588;-72
2023/05/31 06:47:51;;;;;;;0.80;0.80;;;23.70;96.60;;;;;;4976870;28;20472;-73
2023/05/31 06:50:18;;;;;;;0.90;0.90;;;24.00;96.60;;;;;;4972259;28;20474;-73
2023/05/31 06:52:46;;;;;;;1.00;1.00;;;24.30;96.50;;;;;;4971839;28;20483;-72
2023/05/31 06:55:13;;;;;;;1.10;1.10;;;24.50;96.50;;;;;;4972381;28;20526;-73
2023/05/31 06:57:40;;;;;;;1.00;1.00;;;24.80;96.00;;;;;;4965508;28;20474;-73
2023/05/31 07:00:08;;;;;;;1.53;1.53;;;25.00;95.90;;;;;;4960055;28;20531;-73
2023/05/31 07:02:35;;;;;;;1.83;1.73;;;25.10;97.00;;;;;;4964572;28;20519;-73
2023/05/31 07:05:01;;;;;;;1.50;1.40;;;24.90;97.00;;;;;;4974345;28;20952;-73
2023/05/31 07:07:28;;;;;;;0.67;0.67;;;25.20;96.60;;;;;;4975146;28;20523;-73
2023/05/31 07:09:56;;;;;;;1.00;1.00;;;25.30;96.40;;;;;;4975691;28;20527;-73
2023/05/31 07:12:23;;;;;;;1.37;1.37;;;25.40;95.60;;;;;;4974067;28;20498;-73
2023/05/31 07:14:50;;;;;;;0.80;0.80;;;25.50;94.80;;;;;;4973622;28;20483;-73
2023/05/31 07:17:16;;;;;;;0.80;0.80;;;25.40;94.80;;;;;;4974698;28;20504;-73
2023/05/31 07:19:46;;;;;;;0.73;0.73;;;25.80;94.20;;;;;;4974507;28;20463;-73
2023/05/31 07:22:15;;;;;;;0.63;0.63;;;26.30;93.90;;;;;;4972094;28;20491;-72
2023/05/31 07:24:41;;;;;;;0.73;0.73;;;26.40;92.20;;;;;;4970620;28;20475;-73
2023/05/31 07:27:10;;;;;;;0.80;0.80;;;26.50;91.60;;;;;;4961263;28;20583;-73
2023/05/31 07:29:36;;;;;;;0.70;0.70;;;26.60;91.40;;;;;;4954227;28;20500;-73
2023/05/31 07:32:03;;;;;;;1.00;1.00;;;26.60;90.60;;;;;;4957742;28;20495;-72
2023/05/31 07:34:30;;;;;;;0.60;0.60;;;26.30;90.80;;;;;;4972905;28;20467;-72
2023/05/31 07:36:57;;;;;;;0.80;0.80;;;26.70;89.50;;;;;;4972212;28;20551;-72
2023/05/31 07:39:24;;;;;;;0.57;0.57;;;26.40;86.30;;;;;;4973069;28;20495;-72
2023/05/31 07:41:50;;;;;;;0.63;0.63;;;26.20;87.60;;;;;;4972369;28;20487;-73
2023/05/31 07:44:19;;;;;;;0.70;0.70;;;26.40;87.70;;;;;;4972223;28;20470;-73
2023/05/31 07:46:46;;;;;;;0.40;0.40;;;26.60;83.70;;;;;;4973407;28;20468;-73
2023/05/31 07:49:13;;;;;;;0.70;0.70;;;26.70;81.50;;;;;;4973087;28;20467;-73
2023/05/31 07:51:39;;;;;;;0.70;0.70;;;26.70;83.30;;;;;;4972602;28;20491;-73
2023/05/31 07:54:06;;;;;;;0.43;0.43;;;26.80;83.40;;;;;;4972370;28;20510;-73
2023/05/31 07:56:33;;;;;;;0.60;0.60;;;27.00;82.60;;;;;;4955109;28;20801;-73
2023/05/31 07:58:59;;;;;;;0.40;0.40;;;27.00;80.10;;;;;;4953237;28;20465;-73
2023/05/31 08:01:28;;;;;;;0.57;0.57;;;27.00;74.50;;;;;;4953108;28;20493;-73
2023/05/31 08:03:55;;;;;;;0.40;0.40;;;26.80;77.50;;;;;;4970759;28;20475;-73
2023/05/31 08:06:22;;;;;;;0.30;0.30;;;26.30;73.70;;;;;;4957547;28;20858;-73
2023/05/31 08:08:48;;;;;;;0.77;0.77;;;26.10;76.40;;;;;;4955898;28;20476;-73
2023/05/31 08:11:16;;;;;;;0.60;0.60;;;26.20;77.20;;;;;;4956496;28;20483;-73
2023/05/31 08:13:43;;;;;;;0.53;0.53;;;26.30;78.30;;;;;;4970073;28;20558;-73
2023/05/31 08:16:09;;;;;;;0.40;0.40;;;25.40;75.20;;;;;;4975290;28;20487;-73
2023/05/31 08:18:37;;;;;;;0.40;0.40;;;25.50;78.40;;;;;;4976773;28;20467;-73
2023/05/31 08:21:04;;;;;;;0.50;0.50;;;25.70;75.40;;;;;;4974520;28;20491;-73
2023/05/31 08:23:31;;;;;;;0.50;0.50;;;25.70;77.10;;;;;;4966735;28;20476;-73
2023/05/31 08:25:58;;;;;;;0.50;0.50;;;25.50;75.60;;;;;;4972827;28;20530;-73
2023/05/31 08:28:24;;;;;;;0.40;0.40;;;25.20;77.10;;;;;;4976998;28;20482;-73
2023/05/31 08:30:51;;;;;;;0.40;0.40;;;24.90;78.60;;;;;;4971995;28;20848;-73
2023/05/31 08:33:18;;;;;;;0.57;0.50;;;25.00;78.30;;;;;;4972325;28;20979;-73
2023/05/31 08:35:46;;;;;;;0.73;0.73;;;25.10;78.00;;;;;;4972391;28;20502;-73
2023/05/31 08:38:13;;;;;;;0.70;0.70;;;25.20;76.90;;;;;;4978699;28;20472;-72
2023/05/31 08:40:40;;;;;;;0.40;0.40;;;24.80;74.60;;;;;;4972273;28;20511;-74
2023/05/31 08:43:15;;;;;;;0.50;0.50;;;24.00;76.30;;;;;;4969442;28;20491;-73
2023/05/31 08:45:43;;;;;;;0.93;0.93;;;23.90;78.30;;;;;;4971994;28;21007;-73
2023/05/31 08:48:14;;;;;;;0.70;0.70;;;24.00;77.20;;;;;;4978398;28;20480;-73
2023/05/31 08:50:43;;;;;;;0.90;0.50;;;24.10;77.10;;;;;;4975920;28;20492;-76
2023/05/31 08:53:11;;;;;;;0.60;0.60;;;24.00;78.00;;;;;;4978524;28;20480;-73
2023/05/31 08:55:39;;;;;;;1.03;1.03;;;23.80;77.30;;;;;;4982420;28;20471;-73
2023/05/31 08:58:06;;;;;;;1.10;0.40;;;23.70;76.50;;;;;;4988719;28;20464;-73
2023/05/31 09:00:33;;;;;;;0.40;0.40;;;23.80;78.60;;;;;;4986027;28;20549;-73
2023/05/31 09:03:01;;;;;;;3.17;0.57;;;23.90;78.70;;;;;;4988772;28;20494;-73
2023/05/31 09:05:27;;;;;;;0.70;0.70;;;23.80;79.40;;;;;;4990983;28;20462;-74
2023/05/31 09:07:54;;;;;;;0.53;0.53;;;23.70;80.60;;;;;;4976951;28;20470;-74
2023/05/31 09:10:22;;;;;;;1.60;0.90;;;23.50;81.70;;;;;;4973714;28;20479;-73
2023/05/31 09:12:49;;;;;;;0.70;0.70;;;23.40;81.30;;;;;;4971769;28;21349;-73
2023/05/31 09:15:17;;;;;;;0.60;0.60;;;23.20;82.40;;;;;;4972829;28;20568;-74
2023/05/31 09:17:45;;;;;;;0.50;0.50;;;23.00;82.00;;;;;;4972941;28;20557;-74
2023/05/31 09:20:13;;;;;;;0.50;0.50;;;23.00;83.00;;;;;;4969736;28;20502;-74
2023/05/31 09:22:40;;;;;;;0.70;0.70;;;22.70;83.70;;;;;;4970688;28;20545;-73
2023/05/31 09:25:07;;;;;;;1.07;0.93;;;22.50;84.80;;;;;;4970248;28;20478;-74
2023/05/31 09:27:40;;;;;;;1.73;0.83;;;22.50;87.50;;;;;;4969996;28;20568;-73
2023/05/31 09:30:08;;;;;;;0.87;0.77;;;22.40;88.00;;;;;;4968584;28;20492;-73
2023/05/31 09:32:36;;;;;;;1.23;0.70;;;22.30;88.80;;;;;;4977818;23;20463;-69
2023/05/31 09:35:12;;;;;;;1.27;1.27;;;22.40;89.40;;;;;;4986000;28;20804;-69
2023/05/31 09:37:45;;;;;;;1.03;1.03;;;22.50;89.10;;;;;;4989594;28;20549;-69
2023/05/31 09:40:14;;;;;;;1.07;0.67;;;22.40;88.80;;;;;;4978693;28;20847;-70
2023/05/31 09:42:49;;;;;;;1.07;1.07;;;22.30;87.80;;;;;;4980964;28;20488;-69
2023/05/31 09:45:17;;;;;;;1.97;1.00;;;22.30;89.10;;;;;;4969886;28;20513;-69
2023/05/31 09:47:43;;;;;;;1.90;0.80;;;22.40;88.00;;;;;;4979737;28;20466;-69
2023/05/31 09:50:11;;;;;;;0.60;0.60;;;22.40;89.50;;;;;;4972185;28;20475;-70
2023/05/31 09:52:38;;;;;;;0.40;0.40;;;22.30;88.70;;;;;;4967766;28;20483;-69
2023/05/31 09:55:09;;;;;;;0.80;0.80;;;22.40;90.40;;;;;;4959307;28;20531;-70
2023/05/31 09:57:41;;;;;;;0.30;0.30;;;22.30;89.20;;;;;;4972668;28;20477;-70
2023/05/31 10:00:14;;;;;;;1.33;1.33;;;21.80;89.70;;;;;;4970544;28;20509;-70
2023/05/31 10:02:43;;;;;;;0.70;0.70;;;21.70;90.80;;;;;;4972402;28;20497;-70
2023/05/31 10:05:11;;;;;;;0.87;0.73;;;21.70;90.70;;;;;;4968110;28;20490;-70
2023/05/31 10:07:39;;;;;;;1.13;1.00;;;21.70;90.50;;;;;;4962820;28;20499;-69
2023/05/31 10:10:07;;;;;;;0.60;0.60;;;21.80;90.20;;;;;;4966442;28;20881;-70
2023/05/31 10:12:39;;;;;;;0.70;0.70;;;22.00;90.80;;;;;;4971965;28;20552;-70
2023/05/31 10:15:13;;;;;;;0.73;0.73;;;22.00;90.10;;;;;;4968155;28;20462;-70
2023/05/31 10:17:46;;;;;;;1.27;0.60;;;22.00;90.60;;;;;;4973305;28;20842;-70
2023/05/31 10:20:16;;;;;;;0.50;0.50;;;22.10;90.20;;;;;;4971940;28;20489;-70
2023/05/31 10:22:45;;;;;;;0.40;0.40;;;22.00;89.50;;;;;;4977688;28;20481;-69
2023/05/31 10:25:19;;;;;;;0.70;0.70;;;22.10;90.20;;;;;;4964792;28;20503;-70
2023/05/31 10:27:51;;;;;;;0.60;0.60;;;22.20;90.70;;;;;;4967070;28;20539;-69
2023/05/31 10:30:25;;;;;;;0.97;0.97;;;22.20;90.80;;;;;;4971191;28;20530;-70
2023/05/31 10:32:56;;;;;;;0.60;0.60;;;22.20;91.00;;;;;;4959745;28;20576;-70
2023/05/31 10:35:22;;;;;;;2.17;0.90;;;22.40;91.10;;;;;;4967466;28;20473;-70
2023/05/31 10:37:53;;;;;;;0.53;0.40;;;22.40;90.80;;;;;;4971754;28;20958;-71
2023/05/31 10:40:24;;;;;;;0.93;0.70;;;22.40;90.40;;;;;;4974495;28;20536;-70
2023/05/31 10:42:56;;;;;;;1.17;0.70;;;22.50;90.50;;;;;;4960253;28;20508;-70
2023/05/31 10:45:29;;;;;;;0.70;0.70;;;22.40;90.50;;;;;;4972999;28;20542;-70
2023/05/31 10:48:01;;;;;;;0.40;0.40;;;22.50;90.30;;;;;;4970010;28;20467;-71
2023/05/31 10:50:28;;;;;;;1.20;1.10;;;22.60;89.50;;;;;;4964008;28;20483;-70
2023/05/31 10:53:10;;;;;;;0.90;0.90;;;22.60;90.30;;;;;;4970845;28;20593;-70
2023/05/31 10:55:42;;;;;;;0.80;0.80;;;22.60;90.10;;;;;;4968694;28;20471;-70
2023/05/31 10:58:25;;;;;;;1.20;1.20;;;22.50;89.30;;;;;;4974188;28;20523;-70
2023/05/31 11:00:55;;;;;;;0.87;0.87;;;22.30;90.00;;;;;;4964101;28;20565;-70
2023/05/31 11:03:23;;;;;;;0.30;0.30;;;22.40;90.70;;;;;;4980165;28;20575;-70
2023/05/31 11:05:56;;;;;;;0.93;0.93;;;22.50;90.20;;;;;;4963770;28;20569;-71
2023/05/31 11:08:23;;;;;;;0.80;0.80;;;22.40;90.10;;;;;;4970660;28;20613;-71
2023/05/31 11:10:49;;;;;;;0.83;0.83;;;22.50;90.50;;;;;;4964992;28;20957;-70
2023/05/31 11:13:17;;;;;;;1.53;0.80;;;22.40;90.60;;;;;;4968166;28;20501;-70
2023/05/31 11:15:46;;;;;;;0.87;0.63;;;22.40;90.70;;;;;;4971107;28;20525;-71
2023/05/31 11:18:17;;;;;;;1.30;0.70;;;22.60;91.10;;;;;;4985877;28;21134;-70
2023/05/31 11:20:43;;;;;;;0.50;0.50;;;22.70;91.50;;;;;;4982318;28;20560;-70
2023/05/31 11:23:28;;;;;;;0.80;0.80;;;22.70;91.50;;;;;;4971077;28;20513;-70
2023/05/31 11:26:08;;;;;;;0.60;0.60;;;22.80;91.60;;;;;;4960644;28;20469;-69
2023/05/31 11:28:55;;;;;;;2.90;1.33;;;22.70;91.10;;;;;;4970884;28;20478;-70
2023/05/31 11:31:55;;;;;;;1.90;1.00;;;22.80;91.40;;;;;;4967121;28;20557;-70
2023/05/31 11:34:25;;;;;;;1.40;1.30;;;22.90;91.50;;;;;;4967758;28;20494;-69
2023/05/31 11:36:51;;;;;;;1.00;1.00;;;23.00;91.50;;;;;;4974308;28;20461;-70
2023/05/31 11:39:18;;;;;;;0.73;0.73;;;23.00;91.40;;;;;;4975263;28;20466;-71
2023/05/31 11:41:45;;;;;;;1.57;1.13;;;23.10;91.90;;;;;;4969693;28;20462;-70
2023/05/31 11:44:14;;;;;;;2.13;1.10;;;23.10;91.90;;;;;;4964860;28;20483;-71
2023/05/31 11:46:45;;;;;;;0.80;0.80;;;23.00;91.20;;;;;;4982419;28;20470;-70
2023/05/31 11:49:13;;;;;;;0.80;0.80;;;23.10;91.60;;;;;;4963647;28;20490;-70
2023/05/31 11:51:44;;;;;;;0.97;0.70;;;23.00;90.80;;;;;;4973693;28;20476;-70
2023/05/31 11:54:14;;;;;;;0.40;0.40;;;23.10;91.30;;;;;;4969408;28;20585;-70
2023/05/31 11:56:41;;;;;;;0.70;0.70;;;23.20;91.20;;;;;;4963474;28;20814;-70
2023/05/31 11:59:08;;;;;;;0.53;0.53;;;23.20;91.10;;;;;;4964642;28;20567;-70
2023/05/31 12:01:39;;;;;;;0.77;0.77;;;23.20;91.60;;;;;;4965224;28;21151;-70
2023/05/31 12:04:06;;;;;;;0.73;0.73;;;23.30;91.50;;;;;;4975482;28;20504;-70
2023/05/31 12:06:33;;;;;;;0.97;0.50;;;23.50;91.70;;;;;;4976962;28;20532;-70
2023/05/31 12:09:02;;;;;;;0.60;0.60;;;23.50;90.50;;;;;;4979500;28;20474;-70
2023/05/31 12:11:29;;;;;;;0.40;0.40;;;23.60;90.10;;;;;;4968461;28;20875;-70
2023/05/31 12:13:56;;;;;;;0.47;0.47;;;23.50;87.10;;;;;;4978494;28;20522;-71
2023/05/31 12:16:22;;;;;;;0.93;0.70;;;23.40;87.10;;;;;;4967861;28;20474;-70
2023/05/31 12:18:49;;;;;;;0.50;0.50;;;23.30;87.50;;;;;;4972189;28;20465;-70
2023/05/31 12:21:16;;;;;;;1.60;1.60;;;23.40;88.10;;;;;;4967621;28;20559;-70
2023/05/31 12:23:54;;;;;;;0.50;0.50;;;23.50;88.80;;;;;;4973991;28;20892;-71
2023/05/31 12:26:23;;;;;;;0.30;0.27;;;23.70;86.00;;;;;;4970739;28;20466;-71
2023/05/31 12:28:50;;;;;;;0.80;0.80;;;23.70;85.50;;;;;;4967618;28;21058;-71
2023/05/31 12:31:23;;;;;;;2.00;0.30;;;23.70;85.30;;;;;;4965395;28;20482;-71
2023/05/31 12:34:13;;;;;;;0.60;0.47;;;23.80;85.90;;;;;;4969890;28;20487;-70
2023/05/31 12:36:43;;;;;;;0.70;0.70;;;23.70;85.80;;;;;;4977651;28;20507;-71
2023/05/31 12:39:11;;;;;;;0.50;0.50;;;23.70;83.80;;;;;;4959410;28;20472;-70
2023/05/31 12:41:44;;;;;;;0.83;0.80;;;23.60;82.10;;;;;;4969822;28;20558;-71
2023/05/31 12:44:12;;;;;;;0.50;0.50;;;23.50;83.10;;;;;;4970115;28;20478;-71
2023/05/31 12:46:40;;;;;;;0.70;0.50;;;23.50;82.80;;;;;;4970484;28;20906;-71
2023/05/31 12:49:21;;;;;;;2.17;0.53;;;23.60;83.50;;;;;;4969575;28;21101;-72
2023/05/31 12:51:47;;;;;;;0.53;0.53;;;23.60;84.10;;;;;;4956497;28;20554;-71
2023/05/31 12:54:17;;;;;;;0.40;0.40;;;23.60;83.30;;;;;;4971928;28;20821;-71
2023/05/31 12:56:45;;;;;;;0.60;0.60;;;23.50;83.20;;;;;;4970675;28;20633;-71
2023/05/31 12:59:12;;;;;;;1.00;1.00;;;23.50;84.20;;;;;;4966481;28;20471;-71
2023/05/31 13:01:40;;;;;;;0.97;0.97;;;23.60;83.50;;;;;;4971318;28;20562;-71
2023/05/31 13:04:07;;;;;;;0.50;0.50;;;23.60;84.60;;;;;;4964170;28;20496;-71
2023/05/31 13:06:33;;;;;;;3.30;0.60;;;23.80;85.10;;;;;;4969229;28;20521;-72
2023/05/31 13:09:04;;;;;;;0.73;0.73;;;23.90;85.50;;;;;;4970387;28;20565;-72
2023/05/31 13:11:32;;;;;;;0.73;0.73;;;23.70;83.40;;;;;;4971672;28;20523;-71
2023/05/31 13:14:00;;;;;;;1.70;0.57;;;23.60;84.00;;;;;;4962826;28;20494;-71
2023/05/31 13:16:26;;;;;;;1.60;0.70;;;23.60;85.40;;;;;;4970860;28;20465;-71
2023/05/31 13:18:53;;;;;;;0.50;0.50;;;23.70;84.60;;;;;;4964448;28;20835;-71
2023/05/31 13:21:20;;;;;;;0.77;0.77;;;23.60;84.80;;;;;;4972577;28;20467;-71
2023/05/31 13:23:46;;;;;;;0.87;0.87;;;23.90;84.70;;;;;;4959595;28;20994;-71
2023/05/31 13:26:13;;;;;;;5.40;0.50;;;23.70;82.30;;;;;;4976037;28;20470;-71
2023/05/31 13:28:40;;;;;;;0.77;0.53;;;23.70;81.90;;;;;;4970453;28;20471;-71
2023/05/31 13:31:09;;;;;;;0.33;0.33;;;23.70;83.40;;;;;;4973691;28;20496;-71
2023/05/31 13:33:36;;;;;;;0.57;0.57;;;;;;;;;;4968794;28;20591;-71
2023/05/31 13:36:03;;;;;;;0.80;0.80;;;23.80;83.70;;;;;;4974233;28;20530;-71
2023/05/31 13:38:30;;;;;;;0.30;0.30;;;23.70;84.40;;;;;;4972465;28;20471;-71
2023/05/31 13:40:56;;;;;;;0.53;0.53;;;23.80;85.30;;;;;;4972924;28;20489;-71
2023/05/31 13:43:24;;;;;;;0.50;0.50;;;24.00;84.10;;;;;;4966204;28;20491;-71
2023/05/31 13:45:51;;;;;;;0.70;0.70;;;24.00;82.00;;;;;;4967338;28;21047;-71
2023/05/31 13:48:20;;;;;;;1.60;0.47;;;24.10;83.00;;;;;;4975119;28;20471;-71
2023/05/31 13:50:46;;;;;;;0.97;0.60;;;24.10;82.70;;;;;;4973897;28;20482;-71
2023/05/31 13:53:13;;;;;;;1.33;1.23;;;24.00;81.30;;;;;;4974242;28;20569;-70
2023/05/31 13:55:40;;;;;;;0.73;0.73;;;24.00;82.70;;;;;;4974585;28;20827;-71
2023/05/31 13:58:07;;;;;;;0.40;0.40;;;23.90;82.60;;;;;;4974424;28;20471;-71
2023/05/31 14:00:34;;;;;;;0.40;0.40;;;23.90;82.60;;;;;;4973126;28;20505;-71
2023/05/31 14:03:00;;;;;;;0.90;0.77;;;24.00;81.80;;;;;;4974750;28;20498;-71
2023/05/31 14:05:28;;;;;;;0.30;0.30;;;24.00;82.90;;;;;;4974287;28;20470;-71
2023/05/31 14:07:55;;;;;;;0.40;0.40;;;24.00;83.50;;;;;;4968218;28;20522;-71
2023/05/31 14:10:22;;;;;;;1.70;0.67;;;24.10;83.20;;;;;;4973668;28;21029;-71
2023/05/31 14:12:49;;;;;;;0.53;0.53;;;24.10;85.50;;;;;;4973983;28;21348;-71
2023/05/31 14:15:16;;;;;;;0.30;0.30;;;24.20;87.40;;;;;;4974378;28;20483;-71
2023/05/31 14:17:43;;;;;;;0.40;0.40;;;24.30;87.20;;;;;;4977888;28;20834;-71
2023/05/31 14:20:12;;;;;;;0.40;0.40;;;24.30;87.50;;;;;;4972606;28;20485;-71
2023/05/31 14:22:40;;;;;;;0.63;0.40;;;24.40;88.50;;;;;;4972140;28;20574;-71
2023/05/31 14:25:08;;;;;;;0.40;0.40;;;24.50;88.40;;;;;;4969709;28;20463;-71
2023/05/31 14:27:35;;;;;;;0.40;0.40;;;24.50;87.80;;;;;;4971263;28;20995;-71
2023/05/31 14:30:01;;;;;;;2.10;0.80;;;24.50;88.60;;;;;;4967717;28;20494;-71
2023/05/31 14:32:28;;;;;;;0.47;0.47;;;24.50;90.10;;;;;;4969849;28;20579;-71
2023/05/31 14:34:55;;;;;;;0.83;0.57;;;24.60;90.40;;;;;;4973622;28;20467;-71
2023/05/31 14:37:21;;;;;;;1.13;0.90;;;24.30;95.10;;;;;;4972333;28;20631;-71
2023/05/31 14:39:49;;;;;;;0.57;0.57;;;24.40;90.40;;;;;;4972798;28;20487;-71
2023/05/31 14:42:16;;;;;;;0.87;0.67;;;24.10;90.90;;;;;;4972035;28;21011;-71
2023/05/31 14:44:42;;;;;;;0.90;0.70;;;24.10;91.30;;;;;;4971157;28;20487;-72
2023/05/31 14:47:09;;;;;;;0.70;0.70;;;24.10;91.00;;;;;;4973039;28;20471;-71
2023/05/31 14:49:36;;;;;;;0.60;0.37;;;24.00;90.60;;;;;;4973745;28;20933;-71
2023/05/31 14:52:03;;;;;;;0.40;0.40;;;24.00;91.10;;;;;;4972538;28;20462;-70
2023/05/31 14:54:29;;;;;;;0.33;0.33;;;24.10;91.40;;;;;;4970778;28;20948;-71
2023/05/31 14:56:57;;;;;;;0.20;0.20;;;24.20;91.60;;;;;;4973738;28;20525;-70
2023/05/31 14:59:28;;;;;;;0.50;0.50;;;24.20;91.40;;;;;;4971393;28;20467;-71
2023/05/31 15:01:57;;;;;;;0.33;0.33;;;24.30;91.70;;;;;;4973677;28;20506;-70
2023/05/31 15:04:24;;;;;;;0.90;0.50;;;24.20;91.90;;;;;;4970103;28;20486;-70
2023/05/31 15:06:50;;;;;;;0.57;0.40;;;24.30;91.70;;;;;;4973722;28;20555;-70
2023/05/31 15:09:18;;;;;;;0.60;0.60;;;24.20;91.00;;;;;;4972472;28;20574;-70
2023/05/31 15:11:44;;;;;;;0.60;0.47;;;24.10;91.40;;;;;;4972171;28;20494;-71
2023/05/31 15:14:13;;;;;;;0.40;0.40;;;24.30;90.80;;;;;;4971231;28;20513;-73
2023/05/31 15:16:39;;;;;;;0.43;0.43;;;24.30;90.00;;;;;;4971348;28;20970;-70
2023/05/31 15:19:06;;;;;;;0.50;0.50;;;24.20;89.50;;;;;;4973061;28;21018;-70
2023/05/31 15:21:33;;;;;;;0.27;0.27;;;24.10;90.10;;;;;;4971420;28;20543;-71
2023/05/31 15:23:59;;;;;;;0.60;0.60;;;24.10;89.90;;;;;;4966588;28;20522;-71
2023/05/31 15:26:26;;;;;;;0.70;0.60;;;24.00;90.20;;;;;;4971351;28;20470;-70
2023/05/31 15:28:53;;;;;;;1.87;1.70;;;24.00;90.10;;;;;;4972468;28;20463;-71
2023/05/31 15:31:21;;;;;;;0.70;0.70;;;24.00;88.70;;;;;;4967693;28;20474;-71
2023/05/31 15:33:48;;;;;;;0.40;0.40;;;24.00;88.40;;;;;;4956797;28;20505;-71
2023/05/31 15:36:15;;;;;;;2.20;0.63;;;24.00;87.30;;;;;;4968135;28;20487;-71
2023/05/31 15:38:41;;;;;;;0.40;0.40;;;24.00;87.50;;;;;;4971409;28;20502;-71
2023/05/31 15:41:08;;;;;;;3.17;2.37;;;23.90;86.40;;;;;;4972265;28;20470;-71
2023/05/31 15:43:35;;;;;;;0.20;0.20;;;24.10;87.60;;;;;;4968893;28;20922;-71
2023/05/31 15:46:09;;;;;;;2.60;1.97;;;24.10;86.80;;;;;;4972334;28;20551;-71
2023/05/31 15:48:37;;;;;;;0.20;0.20;;;24.10;88.40;;;;;;4966588;28;20476;-71
2023/05/31 15:51:04;;;;;;;0.40;0.40;;;24.00;88.80;;;;;;4976923;28;20882;-71
2023/05/31 15:53:31;;;;;;;0.40;0.40;;;23.90;88.60;;;;;;4977718;28;21002;-71
2023/05/31 15:55:57;;;;;;;0.40;0.27;;;23.80;88.30;;;;;;4972275;28;20478;-71
2023/05/31 15:58:24;;;;;;;1.20;0.80;;;23.70;88.60;;;;;;4967355;28;20524;-70
2023/05/31 16:00:51;;;;;;;1.53;0.50;;;23.60;89.20;;;;;;4971001;28;21032;-70
2023/05/31 16:03:17;;;;;;;0.40;0.40;;;23.60;90.10;;;;;;4969177;28;20500;-70
2023/05/31 16:05:45;;;;;;;0.60;0.60;;;23.50;89.90;;;;;;4970441;28;20460;-70
2023/05/31 16:08:12;;;;;;;0.40;0.40;;;23.40;90.60;;;;;;4967351;28;20476;-70
2023/05/31 16:10:38;;;;;;;0.50;0.50;;;23.30;90.90;;;;;;4971608;28;20458;-70
2023/05/31 16:13:07;;;;;;;2.43;0.70;;;23.20;91.20;;;;;;4970086;28;20500;-70
2023/05/31 16:15:34;;;;;;;0.30;0.30;;;23.10;91.60;;;;;;4962800;28;20490;-71
2023/05/31 16:18:01;;;;;;;2.23;0.97;;;23.10;91.70;;;;;;4971588;28;20985;-71
2023/05/31 16:20:27;;;;;;;1.70;0.70;;;23.20;92.10;;;;;;4986805;28;20498;-70
2023/05/31 16:22:57;;;;;;;0.40;0.40;;;23.20;91.90;;;;;;4971103;28;20494;-71
2023/05/31 16:25:24;;;;;;;0.47;0.47;;;23.20;92.00;;;;;;4968495;28;20560;-71
2023/05/31 16:27:50;;;;;;;0.87;0.83;;;23.10;92.40;;;;;;4968991;28;20473;-71
2023/05/31 16:30:17;;;;;;;0.30;0.30;;;23.10;92.70;;;;;;4966590;28;20476;-71
2023/05/31 16:32:44;;;;;;;0.60;0.60;;;23.10;93.00;;;;;;4970005;28;20552;-70
2023/05/31 16:35:11;;;;;;;0.70;0.70;;;23.00;93.20;;;;;;4983769;23;20469;-73
2023/05/31 16:37:38;;;;;;;0.40;0.40;;;22.90;93.10;;;;;;4965446;28;20500;-71
2023/05/31 16:40:07;;;;;;;0.70;0.70;;;22.80;93.20;;;;;;4967933;28;20533;-72
2023/05/31 16:42:33;;;;;;;0.70;0.70;;;22.70;93.80;;;;;;4968879;28;20526;-72
2023/05/31 16:45:00;;;;;;;0.70;0.70;;;22.60;94.10;;;;;;4970081;28;20464;-73
2023/05/31 16:47:27;;;;;;;2.67;0.80;;;22.60;94.40;;;;;;4951443;29;20513;-71
2023/05/31 16:49:53;;;;;;;0.80;0.80;;;22.50;94.80;;;;;;4952405;28;20466;-72
2023/05/31 16:52:20;;;;;;;1.27;0.83;;;22.40;95.10;;;;;;4951373;28;20484;-72